Time;durP1;ratioP1;P1;durP2;ratioP2;P2;SDS_P1;SDS_P2;PMS_P1;PMS_P2;Temp;Humidity;BMP_temperature;BMP_pressure;BME280_temperature;BME280_humidity;BME280_pressure;Samples;Min_cycle;Max_cycle;Signal;HPM_P1;HPM_P2
2023/11/09 00:01:52;;;;;;;;;;;;;;;10.26;90.65;99761.00;5011687;28;19914;-68
2023/11/09 00:04:17;;;;;;;;;;;;;;;10.13;90.85;99754.38;5025217;28;20420;-68
2023/11/09 00:06:42;;;;;;;;;;;;;;;10.20;90.75;99760.31;5031653;28;19956;-68
2023/11/09 00:09:08;;;;;;;;;;;;;;;10.07;91.25;99747.31;5030353;28;20462;-68
2023/11/09 00:11:34;;;;;;;;;;;;;;;10.09;90.24;99742.22;5013783;28;19913;-68
2023/11/09 00:14:04;;;;;;;;;;;;;;;10.02;89.68;99753.88;5011931;28;20023;-68
2023/11/09 00:16:30;;;;;;;;;;;;;;;10.08;90.78;99752.59;5024635;28;19917;-68
2023/11/09 00:18:55;;;;;;;;;;;;;;;10.11;91.38;99757.50;5028203;28;19917;-68
2023/11/09 00:21:21;;;;;;;;;;;;;;;10.02;90.39;99759.44;5028494;28;19990;-68
2023/11/09 00:23:46;;;;;;;;;;;;;;;10.03;90.02;99761.09;5011929;28;20012;-68
2023/11/09 00:26:12;;;;;;;;;;;;;;;10.04;88.52;99759.13;5026834;28;20410;-68
2023/11/09 00:28:37;;;;;;;;;;;;;;;10.30;88.38;99763.97;5031421;28;19924;-68
2023/11/09 00:31:02;;;;;;;;;;;;;;;10.26;86.32;99766.59;5030316;28;19913;-68
2023/11/09 00:33:28;;;;;;;;;;;;;;;10.34;87.27;99767.75;5030255;28;20008;-68
2023/11/09 00:35:54;;;;;;;;;;;;;;;10.55;86.39;99758.75;5023211;28;19975;-68
2023/11/09 00:38:20;;;;;;;;;;;;;;;10.51;84.38;99758.59;5031565;28;19948;-68
2023/11/09 00:40:46;;;;;;;;;;;;;;;10.63;84.85;99760.75;5029227;28;20307;-68
2023/11/09 00:43:11;;;;;;;;;;;;;;;10.75;85.74;99760.91;5030246;28;20303;-68
2023/11/09 00:45:37;;;;;;;;;;;;;;;10.71;86.28;99757.13;5031245;28;19917;-68
2023/11/09 00:48:02;;;;;;;;;;;;;;;10.77;87.10;99760.56;5030199;28;19917;-68
2023/11/09 00:50:28;;;;;;;;;;;;;;;10.62;89.04;99764.72;5030200;28;19922;-68
2023/11/09 00:52:53;;;;;;;;;;;;;;;10.55;89.07;99767.16;5021089;28;19918;-68
2023/11/09 00:55:19;;;;;;;;;;;;;;;10.30;90.24;99767.56;5023761;28;19925;-68
2023/11/09 00:57:44;;;;;;;;;;;;;;;10.38;88.08;99766.78;5031439;28;20012;-68
2023/11/09 01:00:10;;;;;;;;;;;;;;;10.44;87.18;99766.63;5031331;28;19917;-68
2023/11/09 01:02:38;;;;;;;;;;;;;;;10.16;85.15;99758.50;5031364;28;19913;-68
2023/11/09 01:05:06;;;;;;;;;;;;;;;9.87;84.21;99766.31;5029749;28;19913;-68
2023/11/09 01:07:32;;;;;;;;;;;;;;;9.88;84.85;99764.34;5031287;28;19921;-68
2023/11/09 01:09:57;;;;;;;;;;;;;;;9.84;83.94;99766.97;5018536;28;19924;-68
2023/11/09 01:12:22;;;;;;;;;;;;;;;9.89;84.18;99766.00;5011543;28;19991;-68
2023/11/09 01:14:48;;;;;;;;;;;;;;;9.74;83.55;99767.25;5013152;28;19913;-68
2023/11/09 01:17:13;;;;;;;;;;;;;;;9.59;84.35;99769.31;5032766;28;19955;-68
2023/11/09 01:19:38;;;;;;;;;;;;;;;9.29;84.48;99760.63;5034777;28;19913;-68
2023/11/09 01:22:04;;;;;;;;;;;;;;;9.27;84.48;99762.88;5033481;28;19913;-67
2023/11/09 01:24:29;;;;;;;;;;;;;;;9.11;85.97;99763.28;5033753;28;19917;-67
2023/11/09 01:26:55;;;;;;;;;;;;;;;9.10;86.06;99761.66;5032606;28;20391;-67
2023/11/09 01:29:21;;;;;;;;;;;;;;;8.91;86.09;99767.41;5034598;28;19968;-67
2023/11/09 01:31:47;;;;;;;;;;;;;;;8.94;86.22;99763.19;5034747;28;20355;-67
2023/11/09 01:34:13;;;;;;;;;;;;;;;8.93;86.16;99764.28;5033172;28;19967;-67
2023/11/09 01:36:39;;;;;;;;;;;;;;;8.75;86.07;99771.69;5034329;28;19921;-68
2023/11/09 01:39:04;;;;;;;;;;;;;;;8.75;85.90;99766.13;5033381;28;19917;-67
2023/11/09 01:41:29;;;;;;;;;;;;;;;8.68;86.78;99764.63;5032381;28;20419;-67
2023/11/09 01:43:58;;;;;;;;;;;;;;;8.74;84.79;99767.28;5034387;28;20346;-67
2023/11/09 01:46:24;;;;;;;;;;;;;;;8.69;84.86;99768.25;5029144;28;19921;-67
2023/11/09 01:48:49;;;;;;;;;;;;;;;8.65;84.44;99778.34;5013206;28;20005;-67
2023/11/09 01:51:15;;;;;;;;;;;;;;;8.75;84.11;99769.75;5030402;28;19917;-68
2023/11/09 01:53:41;;;;;;;;;;;;;;;8.64;85.56;99762.75;5034131;28;19917;-68
2023/11/09 01:56:06;;;;;;;;;;;;;;;8.60;85.18;99773.72;5033733;28;19987;-67
2023/11/09 01:58:33;;;;;;;;;;;;;;;8.64;84.35;99763.59;5031759;28;19928;-67
2023/11/09 02:01:00;;;;;;;;;;;;;;;8.61;84.41;99769.78;5027689;28;19927;-67
2023/11/09 02:03:25;;;;;;;;;;;;;;;8.54;85.26;99773.00;5034131;28;19913;-67
2023/11/09 02:05:51;;;;;;;;;;;;;;;8.49;86.08;99772.28;5033485;28;19991;-68
2023/11/09 02:08:18;;;;;;;;;;;;;;;8.49;85.75;99775.06;5034053;28;19914;-68
2023/11/09 02:10:43;;;;;;;;;;;;;;;8.49;85.40;99781.47;5033807;28;19917;-67
2023/11/09 02:13:09;;;;;;;;;;;;;;;8.40;85.39;99786.13;5033833;28;19913;-67
2023/11/09 02:15:34;;;;;;;;;;;;;;;8.38;86.12;99791.19;5021082;28;19987;-67
2023/11/09 02:18:00;;;;;;;;;;;;;;;8.40;86.86;99788.91;5033874;28;19919;-67
2023/11/09 02:20:27;;;;;;;;;;;;;;;8.33;86.57;99800.50;5033616;28;20376;-67
2023/11/09 02:22:53;;;;;;;;;;;;;;;8.36;86.17;99804.63;5033660;28;20016;-67
2023/11/09 02:25:19;;;;;;;;;;;;;;;8.32;87.41;99806.38;5031826;28;19991;-67
2023/11/09 02:27:45;;;;;;;;;;;;;;;8.30;87.62;99809.50;5033617;28;19917;-67
2023/11/09 02:30:11;;;;;;;;;;;;;;;8.35;86.40;99806.56;5030454;28;20304;-67
2023/11/09 02:32:36;;;;;;;;;;;;;;;8.32;86.77;99800.78;5028272;28;19917;-67
2023/11/09 02:35:02;;;;;;;;;;;;;;;8.31;86.77;99811.13;5013690;28;19914;-67
2023/11/09 02:37:28;;;;;;;;;;;;;;;8.40;85.73;99819.59;5030787;28;19924;-67
2023/11/09 02:39:53;;;;;;;;;;;;;;;8.39;85.21;99824.34;5033419;28;20392;-67
2023/11/09 02:42:22;;;;;;;;;;;;;;;8.40;85.59;99820.41;5033567;28;19920;-67
2023/11/09 02:44:47;;;;;;;;;;;;;;;8.47;85.14;99814.41;5032402;28;19917;-67
2023/11/09 02:47:13;;;;;;;;;;;;;;;8.54;84.38;99814.03;5032979;28;19979;-67
2023/11/09 02:49:38;;;;;;;;;;;;;;;8.37;85.72;99812.66;5026492;28;20009;-67
2023/11/09 02:52:05;;;;;;;;;;;;;;;8.31;85.78;99815.88;5026702;28;20378;-67
2023/11/09 02:54:31;;;;;;;;;;;;;;;8.24;85.52;99816.28;5031643;28;19987;-67
2023/11/09 02:56:56;;;;;;;;;;;;;;;8.23;86.12;99815.47;5031296;28;20403;-67
2023/11/09 02:59:21;;;;;;;;;;;;;;;8.11;86.66;99817.97;5032122;28;19963;-67
2023/11/09 03:01:47;;;;;;;;;;;;;;;8.11;87.10;99820.75;5032859;28;19913;-67
2023/11/09 03:04:12;;;;;;;;;;;;;;;8.02;86.80;99820.63;5032938;28;19913;-67
2023/11/09 03:06:38;;;;;;;;;;;;;;;8.04;86.85;99814.75;5029783;28;19917;-67
2023/11/09 03:09:03;;;;;;;;;;;;;;;8.07;86.49;99822.50;5031466;28;19925;-67
2023/11/09 03:11:29;;;;;;;;;;;;;;;8.07;86.11;99823.31;5031380;28;20422;-67
2023/11/09 03:13:54;;;;;;;;;;;;;;;7.98;86.19;99831.59;5027113;28;19913;-67
2023/11/09 03:16:21;;;;;;;;;;;;;;;8.04;87.28;99829.53;5019660;28;19975;-67
2023/11/09 03:18:47;;;;;;;;;;;;;;;7.88;86.66;99829.00;5032631;28;19988;-68
2023/11/09 03:21:12;;;;;;;;;;;;;;;7.90;86.90;99837.88;5032462;28;19956;-68
2023/11/09 03:23:37;;;;;;;;;;;;;;;7.94;86.79;99838.88;5012594;28;19971;-68
2023/11/09 03:26:04;;;;;;;;;;;;;;;7.96;86.72;99846.94;5016932;28;20399;-67
2023/11/09 03:28:30;;;;;;;;;;;;;;;7.92;87.17;99851.50;5031534;28;20308;-67
2023/11/09 03:30:56;;;;;;;;;;;;;;;7.73;87.21;99850.44;5032199;28;19978;-67
2023/11/09 03:33:21;;;;;;;;;;;;;;;7.78;87.73;99854.25;5032486;28;19917;-67
2023/11/09 03:35:47;;;;;;;;;;;;;;;7.71;86.95;99849.91;5032073;28;19970;-67
2023/11/09 03:38:12;;;;;;;;;;;;;;;7.79;86.66;99840.03;5031359;28;19917;-67
2023/11/09 03:40:37;;;;;;;;;;;;;;;7.73;86.90;99850.44;5015344;28;19913;-67
2023/11/09 03:43:03;;;;;;;;;;;;;;;7.69;86.80;99849.38;5014056;28;19986;-67
2023/11/09 03:45:28;;;;;;;;;;;;;;;7.65;87.35;99851.13;5032246;28;19917;-67
2023/11/09 03:47:54;;;;;;;;;;;;;;;7.61;88.27;99847.31;5021746;28;19957;-67
2023/11/09 03:50:19;;;;;;;;;;;;;;;7.53;88.51;99843.25;5011054;28;19921;-67
2023/11/09 03:52:45;;;;;;;;;;;;;;;7.58;88.94;99850.69;5012397;28;20336;-67
2023/11/09 03:55:11;;;;;;;;;;;;;;;7.53;88.76;99856.38;5020735;28;20453;-67
2023/11/09 03:57:36;;;;;;;;;;;;;;;7.58;88.99;99857.09;5030282;28;20011;-67
2023/11/09 04:00:11;;;;;;;;;;;;;;;7.66;89.11;99855.56;5031918;28;19920;-67
2023/11/09 04:02:40;;;;;;;;;;;;;;;7.67;89.40;99857.22;5031605;28;19924;-67
2023/11/09 04:05:09;;;;;;;;;;;;;;;7.78;89.59;99862.59;5031937;28;20333;-67
2023/11/09 04:07:34;;;;;;;;;;;;;;;7.68;89.05;99861.66;5031557;28;20010;-67
2023/11/09 04:10:00;;;;;;;;;;;;;;;7.67;88.36;99873.94;5029464;28;19991;-67
2023/11/09 04:12:26;;;;;;;;;;;;;;;7.75;87.99;99871.56;5019101;28;19921;-68
2023/11/09 04:14:52;;;;;;;;;;;;;;;7.86;87.00;99871.06;5030295;28;19994;-69
2023/11/09 04:17:18;;;;;;;;;;;;;;;7.83;87.20;99866.13;5031527;28;19917;-68
2023/11/09 04:19:44;;;;;;;;;;;;;;;7.90;86.95;99876.84;5031752;28;19913;-67
2023/11/09 04:22:10;;;;;;;;;;;;;;;7.95;86.72;99860.03;5028034;28;19952;-66
2023/11/09 04:24:35;;;;;;;;;;;;;;;7.90;86.87;99868.50;5031326;28;19924;-68
2023/11/09 04:27:01;;;;;;;;;;;;;;;7.84;86.61;99876.13;5024843;28;19921;-67
2023/11/09 04:29:26;;;;;;;;;;;;;;;7.68;87.23;99875.56;5029285;28;19921;-67
2023/11/09 04:31:53;;;;;;;;;;;;;;;7.61;87.45;99877.09;5029789;28;20012;-67
2023/11/09 04:34:19;;;;;;;;;;;;;;;7.45;87.76;99875.41;5028025;28;20380;-67
2023/11/09 04:36:44;;;;;;;;;;;;;;;7.39;88.05;99879.41;5023063;28;19917;-67
2023/11/09 04:39:10;;;;;;;;;;;;;;;7.35;88.90;99881.13;5011529;28;19913;-68
2023/11/09 04:41:36;;;;;;;;;;;;;;;7.37;89.32;99880.84;5026782;28;20067;-68
2023/11/09 04:44:01;;;;;;;;;;;;;;;7.30;88.98;99881.22;5031350;28;20000;-67
2023/11/09 04:46:31;;;;;;;;;;;;;;;7.18;89.68;99883.66;5031215;28;19924;-67
2023/11/09 04:48:57;;;;;;;;;;;;;;;7.16;89.68;99879.22;5031864;28;19917;-67
2023/11/09 04:51:26;;;;;;;;;;;;;;;7.19;89.58;99883.34;5035286;28;20315;-67
2023/11/09 04:53:52;;;;;;;;;;;;;;;6.97;90.53;99893.13;5035040;28;19913;-68
2023/11/09 04:56:38;;;;;;;;;;;;;;;6.95;91.18;99892.63;5034023;28;20427;-67
2023/11/09 05:06:48;;;;;;;;;;;;;;;6.96;91.24;99897.03;5024576;28;19939;-67
2023/11/09 05:07:17;;;;;;;;;;;;;;;6.78;92.60;99903.41;5026241;28;19928;-66
2023/11/09 05:09:46;;;;;;;;;;;;;;;6.72;93.38;99902.66;5034371;28;19925;-68
2023/11/09 05:12:12;;;;;;;;;;;;;;;6.56;94.05;99897.31;5022955;28;19928;-67
2023/11/09 05:14:37;;;;;;;;;;;;;;;6.64;94.06;99900.56;5030057;28;20300;-69
2023/11/09 05:17:02;;;;;;;;;;;;;;;6.73;93.54;99905.13;5018914;28;19924;-68
2023/11/09 05:19:28;;;;;;;;;;;;;;;6.84;93.23;99916.13;5027456;28;19917;-68
2023/11/09 05:21:53;;;;;;;;;;;;;;;6.88;93.03;99918.03;5033315;28;19920;-69
2023/11/09 05:24:18;;;;;;;;;;;;;;;7.00;91.86;99925.09;5033400;28;19956;-69
2023/11/09 05:26:48;;;;;;;;;;;;;;;7.10;90.86;99913.78;5028484;28;19952;-69
2023/11/09 05:29:14;;;;;;;;;;;;;;;7.16;90.58;99920.09;5026715;28;19944;-68
2023/11/09 05:31:42;;;;;;;;;;;;;;;7.22;90.28;99926.41;5025859;28;20388;-69
2023/11/09 05:34:07;;;;;;;;;;;;;;;7.18;89.60;99926.22;5028511;28;20289;-69
2023/11/09 05:36:34;;;;;;;;;;;;;;;7.39;88.60;99934.25;5025406;28;19921;-68
2023/11/09 05:38:59;;;;;;;;;;;;;;;7.49;87.97;99934.06;5031866;28;19947;-68
2023/11/09 05:41:25;;;;;;;;;;;;;;;7.55;88.11;99948.75;5025681;28;19917;-69
2023/11/09 05:43:51;;;;;;;;;;;;;;;7.67;85.67;99954.66;5029383;28;19923;-68
2023/11/09 05:46:16;;;;;;;;;;;;;;;7.72;86.24;99949.03;5030281;28;20296;-69
2023/11/09 05:48:42;;;;;;;;;;;;;;;7.79;85.37;99940.28;5028876;28;19928;-67
2023/11/09 05:51:07;;;;;;;;;;;;;;;7.92;85.38;99940.63;5026798;28;19929;-67
2023/11/09 05:53:33;;;;;;;;;;;;;;;8.02;84.76;99946.00;5034233;28;19966;-67
2023/11/09 05:55:59;;;;;;;;;;;;;;;8.11;84.81;99951.72;5033985;28;19925;-67
2023/11/09 05:58:24;;;;;;;;;;;;;;;8.23;84.30;99954.81;5032823;28;19924;-67
2023/11/09 06:00:52;;;;;;;;;;;;;;;8.41;83.52;99946.69;5033188;28;20372;-67
2023/11/09 06:03:17;;;;;;;;;;;;;;;8.37;83.14;99957.59;5033893;28;19920;-67
2023/11/09 06:05:42;;;;;;;;;;;;;;;8.45;83.61;99958.88;5034054;28;19914;-67
2023/11/09 06:08:11;;;;;;;;;;;;;;;8.55;81.82;99967.03;5028832;28;20309;-67
2023/11/09 06:10:37;;;;;;;;;;;;;;;8.56;81.96;99963.13;5029385;28;19918;-67
2023/11/09 06:13:03;;;;;;;;;;;;;;;8.56;81.16;99962.31;5031616;28;19917;-67
2023/11/09 06:15:29;;;;;;;;;;;;;;;8.63;80.44;99961.91;5033756;28;19956;-67
2023/11/09 06:17:55;;;;;;;;;;;;;;;8.58;81.22;99965.59;5032488;28;19951;-67
2023/11/09 06:20:21;;;;;;;;;;;;;;;8.54;80.77;99975.75;5033654;28;19952;-67
2023/11/09 06:22:47;;;;;;;;;;;;;;;8.61;81.79;99976.13;5026938;28;19996;-67
2023/11/09 06:25:13;;;;;;;;;;;;;;;8.66;80.99;99980.78;5023407;28;20045;-66
2023/11/09 06:27:38;;;;;;;;;;;;;;;8.69;81.87;99982.97;5029247;28;20015;-67
2023/11/09 06:30:04;;;;;;;;;;;;;;;8.76;81.36;99986.16;5030698;28;19956;-66
2023/11/09 06:32:30;;;;;;;;;;;;;;;8.99;81.15;99989.03;5027982;28;20595;-66
2023/11/09 06:34:56;;;;;;;;;;;;;;;9.10;80.35;99986.84;5025508;28;19928;-66
2023/11/09 06:37:22;;;;;;;;;;;;;;;9.07;80.39;99987.47;5025318;28;20387;-66
2023/11/09 06:39:49;;;;;;;;;;;;;;;8.99;80.73;99984.31;5026641;28;19917;-67
2023/11/09 06:42:15;;;;;;;;;;;;;;;8.85;80.79;99980.69;5024671;28;19969;-67
2023/11/09 06:44:43;;;;;;;;;;;;;;;8.83;80.81;99974.59;5023123;28;19925;-67
2023/11/09 06:47:10;;;;;;;;;;;;;;;8.91;80.95;99973.03;5023596;28;21254;-67
2023/11/09 06:49:35;;;;;;;;;;;;;;;8.99;80.66;99975.09;5028502;28;20021;-67
2023/11/09 06:52:01;;;;;;;;;;;;;;;9.19;80.18;99979.41;5026230;28;19979;-67
2023/11/09 06:54:27;;;;;;;;;;;;;;;9.43;80.12;99983.09;5027653;28;19979;-67
2023/11/09 06:56:52;;;;;;;;;;;;;;;9.47;78.49;99987.72;5027678;28;19921;-67
2023/11/09 06:59:17;;;;;;;;;;;;;;;9.52;78.23;99987.59;5029367;28;19966;-67
2023/11/09 07:01:43;;;;;;;;;;;;;;;9.47;79.55;99981.31;5032180;28;19928;-67
2023/11/09 07:04:08;;;;;;;;;;;;;;;9.46;78.25;99974.88;5030707;28;19992;-68
2023/11/09 07:06:34;;;;;;;;;;;;;;;9.51;79.58;99971.13;5031459;28;20015;-75
2023/11/09 07:08:59;;;;;;;;;;;;;;;9.47;80.03;99970.13;5029763;28;20397;-70
2023/11/09 07:11:24;;;;;;;;;;;;;;;9.52;79.84;99972.78;5025708;28;19933;-69
2023/11/09 07:13:50;;;;;;;;;;;;;;;9.76;79.93;99975.28;5027437;28;19999;-69
2023/11/09 07:16:16;;;;;;;;;;;;;;;9.83;78.46;99974.84;5026254;28;19917;-68
2023/11/09 07:18:41;;;;;;;;;;;;;;;9.96;78.31;99975.94;5026096;28;20370;-69
2023/11/09 07:21:08;;;;;;;;;;;;;;;9.81;77.67;99974.34;5027417;28;19917;-70
2023/11/09 07:29:04;;;;;;;;;;;;;;;10.09;80.41;99965.81;5020499;28;19933;-72
2023/11/09 07:31:29;;;;;;;;;;;;;;;10.20;79.15;99956.00;5034680;28;19971;-71
2023/11/09 07:33:54;;;;;;;;;;;;;;;10.29;79.13;99958.03;5025777;28;19976;-71
2023/11/09 07:36:20;;;;;;;;;;;;;;;10.33;77.52;99945.06;5028432;28;19917;-72
2023/11/09 07:38:45;;;;;;;;;;;;;;;10.26;74.66;99951.09;5031434;28;19952;-71
2023/11/09 07:41:11;;;;;;;;;;;;;;;10.35;74.97;99942.75;5039870;28;19937;-70
2023/11/09 07:43:36;;;;;;;;;;;;;;;10.38;75.28;99947.72;5019527;28;19991;-71
2023/11/09 07:46:02;;;;;;;;;;;;;;;10.33;72.89;99951.47;5020961;28;19924;-71
2023/11/09 07:48:27;;;;;;;;;;;;;;;10.43;73.01;99952.34;5023066;28;19917;-71
2023/11/09 07:50:53;;;;;;;;;;;;;;;10.46;73.38;99954.53;5028632;28;19922;-72
2023/11/09 07:53:19;;;;;;;;;;;;;;;10.62;72.97;99957.72;5026567;28;19921;-71
2023/11/09 07:55:45;;;;;;;;;;;;;;;10.55;74.05;99946.16;5027336;28;19924;-71
2023/11/09 07:58:10;;;;;;;;;;;;;;;10.71;72.76;99944.56;5026377;28;20303;-71
2023/11/09 08:00:35;;;;;;;;;;;;;;;10.63;72.95;99948.19;5027817;28;19920;-71
2023/11/09 08:03:01;;;;;;;;;;;;;;;10.64;71.13;99947.03;5027678;28;19983;-71
2023/11/09 08:05:29;;;;;;;;;;;;;;;10.72;71.42;99959.38;5030300;28;19921;-71
2023/11/09 08:07:54;;;;;;;;;;;;;;;10.89;72.65;99964.22;5027853;28;19924;-72
2023/11/09 08:10:20;;;;;;;;;;;;;;;10.97;70.90;99968.19;5031036;28;19925;-72
2023/11/09 08:12:45;;;;;;;;;;;;;;;11.09;71.16;99971.97;5031546;28;20386;-72
2023/11/09 08:15:11;;;;;;;;;;;;;;;11.25;71.43;99971.53;5030231;28;20015;-73
2023/11/09 08:17:42;;;;;;;;;;;;;;;11.43;70.60;99965.94;5029240;28;19952;-72
2023/11/09 08:20:14;;;;;;;;;;;;;;;11.38;70.92;99959.34;5045974;28;19925;-72
2023/11/09 08:22:44;;;;;;;;;;;;;;;11.34;68.47;99963.97;5024488;28;19925;-73
2023/11/09 08:25:10;;;;;;;;;;;;;;;11.49;69.37;99975.84;5038367;28;20004;-71
2023/11/09 08:27:40;;;;;;;;;;;;;;;11.54;68.84;99975.66;5019281;28;20471;-72
2023/11/09 08:30:09;;;;;;;;;;;;;;;11.74;69.00;99978.97;5027516;28;19987;-73
2023/11/09 08:32:36;;;;;;;;;;;;;;;11.80;67.82;99981.28;5030047;28;20398;-73
2023/11/09 08:35:02;;;;;;;;;;;;;;;11.74;67.82;99981.78;5031453;28;19917;-73
2023/11/09 08:37:27;;;;;;;;;;;;;;;11.71;65.05;99972.03;5028000;28;19924;-72
2023/11/09 08:39:55;;;;;;;;;;;;;;;11.70;65.91;99978.78;5027750;28;19917;-73
2023/11/09 08:42:20;;;;;;;;;;;;;;;11.82;66.17;99983.72;5026215;28;19921;-72
2023/11/09 08:44:45;;;;;;;;;;;;;;;11.91;66.97;99981.75;5028382;28;19944;-73
2023/11/09 08:47:11;;;;;;;;;;;;;;;11.90;66.82;99985.69;5018328;28;19918;-72
2023/11/09 08:49:37;;;;;;;;;;;;;;;12.19;66.67;99984.22;5012782;28;19925;-72
2023/11/09 08:52:04;;;;;;;;;;;;;;;12.17;65.42;99978.09;5028017;28;19921;-72
2023/11/09 08:54:30;;;;;;;;;;;;;;;12.43;65.17;99985.63;5027690;28;20379;-71
2023/11/09 08:56:55;;;;;;;;;;;;;;;12.41;62.96;99976.72;5027818;28;19913;-71
2023/11/09 08:59:20;;;;;;;;;;;;;;;12.39;62.89;99989.44;5029458;28;20346;-72
2023/11/09 09:01:49;;;;;;;;;;;;;;;12.34;62.67;99993.25;5024039;28;19917;-71
2023/11/09 09:04:14;;;;;;;;;;;;;;;12.52;63.03;99988.41;5029485;28;20284;-72
2023/11/09 09:06:39;;;;;;;;;;;;;;;12.69;62.61;99983.88;5025804;28;19975;-71
2023/11/09 09:09:08;;;;;;;;;;;;;;;12.66;63.61;99973.31;5027638;28;20028;-71
2023/11/09 09:11:33;;;;;;;;;;;;;;;12.53;61.88;99978.00;5029541;28;19924;-71
2023/11/09 09:13:59;;;;;;;;;;;;;;;12.73;62.49;99982.03;5028604;28;19921;-71
2023/11/09 09:16:25;;;;;;;;;;;;;;;12.85;61.30;99979.34;5025668;28;20015;-71
2023/11/09 09:18:51;;;;;;;;;;;;;;;12.92;60.37;99981.63;5029238;28;19917;-72
2023/11/09 09:21:17;;;;;;;;;;;;;;;12.89;61.55;99976.66;5027277;28;19921;-71
2023/11/09 09:23:43;;;;;;;;;;;;;;;13.09;61.18;99966.63;5027270;28;20024;-70
2023/11/09 09:26:08;;;;;;;;;;;;;;;13.00;60.53;99966.69;5028606;28;19939;-69
2023/11/09 09:28:34;;;;;;;;;;;;;;;13.17;60.69;99967.78;5029198;28;19957;-69
2023/11/09 09:31:00;;;;;;;;;;;;;;;13.11;59.65;99958.72;5026343;28;19921;-72
2023/11/09 09:33:26;;;;;;;;;;;;;;;13.25;59.83;99964.06;5026726;28;19917;-70
2023/11/09 09:35:52;;;;;;;;;;;;;;;13.50;59.47;99960.63;5027267;28;19971;-71
2023/11/09 09:38:17;;;;;;;;;;;;;;;13.53;57.64;99966.38;5031436;28;19921;-71
2023/11/09 09:40:43;;;;;;;;;;;;;;;13.53;57.80;99960.75;5027913;28;19968;-70
2023/11/09 09:43:11;;;;;;;;;;;;;;;13.60;56.50;99952.59;5031294;28;19921;-70
2023/11/09 09:45:37;;;;;;;;;;;;;;;13.69;55.98;99948.88;5031956;28;20057;-70
2023/11/09 09:48:02;;;;;;;;;;;;;;;13.82;56.89;99959.00;5028932;28;19960;-70
2023/11/09 09:50:37;;;;;;;;;;;;;;;13.97;56.71;99949.13;5028658;28;19990;-70
2023/11/09 09:53:03;;;;;;;;;;;;;;;14.08;55.18;99943.84;5033350;28;20300;-70
2023/11/09 09:55:28;;;;;;;;;;;;;;;14.05;55.61;99950.19;5029989;28;19931;-70
2023/11/09 09:57:54;;;;;;;;;;;;;;;13.92;55.53;99934.44;5031065;28;19924;-69
2023/11/09 10:00:24;;;;;;;;;;;;;;;14.04;55.58;99940.91;5028752;28;20350;-70
2023/11/09 10:03:00;;;;;;;;;;;;;;;14.23;55.72;99935.91;5031357;28;19939;-69
2023/11/09 10:05:26;;;;;;;;;;;;;;;14.32;56.94;99931.03;5035611;28;19923;-69
2023/11/09 10:08:02;;;;;;;;;;;;;;;14.52;55.67;99922.84;5036207;28;19917;-69
2023/11/09 10:10:32;;;;;;;;;;;;;;;14.50;55.49;99930.81;5032861;28;19921;-69
2023/11/09 10:12:57;;;;;;;;;;;;;;;14.79;56.24;99921.34;5031615;28;19975;-72
2023/11/09 10:15:26;;;;;;;;;;;;;;;14.84;54.77;99921.09;5029631;28;19921;-71
2023/11/09 10:17:54;;;;;;;;;;;;;;;14.90;53.40;99921.69;5031086;28;19921;-70
2023/11/09 10:20:20;;;;;;;;;;;;;;;15.06;55.75;99930.25;5031218;28;19951;-69
2023/11/09 10:22:46;;;;;;;;;;;;;;;14.97;52.75;99927.56;5029432;28;20295;-70
2023/11/09 10:25:11;;;;;;;;;;;;;;;14.92;53.79;99926.97;5028721;28;19917;-70
2023/11/09 10:27:37;;;;;;;;;;;;;;;15.40;53.37;99928.06;5033447;28;19969;-69
2023/11/09 10:30:03;;;;;;;;;;;;;;;15.79;52.58;99921.91;5032194;28;19925;-69
2023/11/09 10:32:31;;;;;;;;;;;;;;;15.93;51.23;99915.06;5032696;28;20315;-70
2023/11/09 10:34:57;;;;;;;;;;;;;;;15.82;49.65;99918.38;5013884;28;19913;-70
2023/11/09 10:37:23;;;;;;;;;;;;;;;15.92;45.00;99913.41;5031121;28;19940;-69
2023/11/09 10:39:52;;;;;;;;;;;;;;;16.21;44.36;99912.19;5032854;28;19924;-69
2023/11/09 10:42:19;;;;;;;;;;;;;;;16.20;46.37;99915.38;5020153;28;20328;-69
2023/11/09 10:44:45;;;;;;;;;;;;;;;16.28;46.89;99909.56;5029057;28;20011;-69
2023/11/09 10:47:13;;;;;;;;;;;;;;;16.18;44.45;99918.56;5027722;28;20008;-69
2023/11/09 10:49:43;;;;;;;;;;;;;;;16.21;45.91;99909.34;5031140;28;20394;-71
2023/11/09 10:52:09;;;;;;;;;;;;;;;15.92;41.20;99907.75;5033775;28;19925;-71
2023/11/09 10:54:36;;;;;;;;;;;;;;;16.16;40.84;99912.47;5031047;28;19920;-72
2023/11/09 10:57:01;;;;;;;;;;;;;;;15.95;38.21;99907.06;5032035;28;19921;-73
2023/11/09 10:59:27;;;;;;;;;;;;;;;16.16;37.94;99908.81;5026675;28;19916;-71
2023/11/09 11:02:01;;;;;;;;;;;;;;;16.08;38.83;99900.16;5031161;28;19917;-70
2023/11/09 11:04:31;;;;;;;;;;;;;;;15.88;39.24;99906.81;5027646;28;20014;-71
2023/11/09 11:06:58;;;;;;;;;;;;;;;15.70;38.63;99902.31;5027551;28;19917;-70
2023/11/09 11:09:27;;;;;;;;;;;;;;;15.78;40.71;99896.91;5027288;28;20007;-70
2023/11/09 11:12:00;;;;;;;;;;;;;;;15.86;39.59;99905.19;5025219;28;19948;-70
2023/11/09 11:14:26;;;;;;;;;;;;;;;15.85;38.95;99891.44;5028888;28;19940;-70
2023/11/09 11:17:11;;;;;;;;;;;;;;;15.76;38.51;99893.63;5030638;28;19940;-70
2023/11/09 11:19:42;;;;;;;;;;;;;;;15.80;38.96;99889.69;5026690;28;20016;-70
2023/11/09 11:22:18;;;;;;;;;;;;;;;15.95;38.90;99890.94;5020247;28;20418;-70
2023/11/09 11:24:43;;;;;;;;;;;;;;;16.12;39.46;99888.97;5025034;28;19924;-71
2023/11/09 11:27:30;;;;;;;;;;;;;;;16.53;38.88;99883.97;5026476;28;19929;-72
2023/11/09 11:29:56;;;;;;;;;;;;;;;16.53;38.15;99883.97;5021903;28;19925;-71
2023/11/09 11:32:24;;;;;;;;;;;;;;;16.31;39.17;99873.31;5024686;28;20266;-70
2023/11/09 11:34:51;;;;;;;;;;;;;;;16.42;39.91;99885.69;5032010;28;19921;-71
2023/11/09 11:37:26;;;;;;;;;;;;;;;16.48;39.40;99884.25;5029294;28;20311;-70
2023/11/09 11:39:51;;;;;;;;;;;;;;;16.75;37.95;99887.31;5029889;28;20003;-70
2023/11/09 11:42:25;;;;;;;;;;;;;;;16.77;39.62;99886.91;5029890;28;20431;-70
2023/11/09 11:44:54;;;;;;;;;;;;;;;17.03;37.43;99885.56;5037783;28;19917;-70
2023/11/09 11:47:23;;;;;;;;;;;;;;;17.06;38.15;99884.81;5030027;28;19917;-70
2023/11/09 11:49:49;;;;;;;;;;;;;;;17.19;37.52;99877.84;5023202;28;19921;-70
2023/11/09 11:52:21;;;;;;;;;;;;;;;17.11;38.61;99878.84;5030186;28;19917;-70
2023/11/09 11:54:46;;;;;;;;;;;;;;;16.66;38.79;99881.88;5031832;28;19913;-70
2023/11/09 11:57:12;;;;;;;;;;;;;;;16.86;37.81;99881.09;5017760;28;19937;-70
2023/11/09 11:59:41;;;;;;;;;;;;;;;17.01;37.45;99885.06;5019593;28;20410;-70
2023/11/09 12:02:13;;;;;;;;;;;;;;;17.10;37.09;99880.03;5028063;28;19917;-71
2023/11/09 12:04:47;;;;;;;;;;;;;;;16.81;36.56;99879.38;5025985;28;19932;-71
2023/11/09 12:07:17;;;;;;;;;;;;;;;17.22;37.88;99871.44;5026851;28;19917;-70
2023/11/09 12:09:46;;;;;;;;;;;;;;;17.24;38.55;99880.34;5030009;28;19917;-70
2023/11/09 12:12:12;;;;;;;;;;;;;;;17.26;37.62;99869.53;5030172;28;19920;-71
2023/11/09 12:14:38;;;;;;;;;;;;;;;17.38;37.89;99874.19;5028774;28;20311;-71
2023/11/09 12:17:04;;;;;;;;;;;;;;;16.92;38.73;99871.97;5025261;28;19997;-73
2023/11/09 12:19:29;;;;;;;;;;;;;;;16.82;39.80;99872.53;5026166;28;19921;-71
2023/11/09 12:21:56;;;;;;;;;;;;;;;16.85;39.99;99874.63;5028650;28;19913;-70
2023/11/09 12:24:21;;;;;;;;;;;;;;;16.69;40.43;99872.66;5029641;28;20380;-70
2023/11/09 12:26:47;;;;;;;;;;;;;;;16.76;38.98;99869.19;5029809;28;19921;-70
2023/11/09 12:29:15;;;;;;;;;;;;;;;16.76;39.18;99872.00;5029721;28;19917;-70
2023/11/09 12:31:41;;;;;;;;;;;;;;;16.70;37.98;99873.44;5027552;28;19917;-72
2023/11/09 12:34:10;;;;;;;;;;;;;;;16.74;38.08;99873.53;5028204;28;19920;-70
2023/11/09 12:36:44;;;;;;;;;;;;;;;16.92;37.17;99869.16;5029163;28;19921;-68
2023/11/09 12:39:31;;;;;;;;;;;;;;;17.13;36.33;99868.00;5027462;28;20004;-72
2023/11/09 12:41:57;;;;;;;;;;;;;;;17.32;36.79;99870.03;5024831;28;19925;-73
2023/11/09 12:44:26;;;;;;;;;;;;;;;17.25;36.43;99865.06;5029708;28;19920;-72
2023/11/09 12:47:15;;;;;;;;;;;;;;;16.82;37.32;99870.50;5029598;28;20303;-71
2023/11/09 12:49:42;;;;;;;;;;;;;;;16.93;37.54;99869.94;5027898;28;20383;-73
2023/11/09 12:52:09;;;;;;;;;;;;;;;16.82;37.73;99875.34;5011538;28;19924;-71
2023/11/09 12:54:34;;;;;;;;;;;;;;;16.81;37.16;99868.06;5028150;28;19913;-71
2023/11/09 12:57:04;;;;;;;;;;;;;;;16.70;38.34;99870.63;5029971;28;19924;-72
2023/11/09 12:59:30;;;;;;;;;;;;;;;16.62;38.34;99869.66;5029651;28;19953;-71
2023/11/09 13:01:56;;;;;;;;;;;;;;;16.52;37.65;99867.38;5028179;28;19955;-70